createdAt,value
2017-09-09T00:06:42.402Z,8.20
2017-09-09T00:26:50.865Z,8.10
2017-09-09T00:29:19.953Z,8.10
2017-09-09T00:31:57.259Z,8.10
2017-09-09T00:41:43.299Z,8.10
2017-09-09T00:44:12.799Z,8.00
2017-09-09T00:46:43.272Z,8.00
2017-09-09T00:49:12.782Z,7.90
2017-09-09T00:54:20.207Z,7.90
2017-09-09T00:57:06.538Z,7.90
2017-09-09T00:59:35.477Z,7.90
2017-09-09T01:02:04.618Z,7.90
2017-09-09T01:12:57.341Z,7.70
2017-09-09T01:15:26.229Z,7.70
2017-09-09T01:17:55.110Z,7.70
2017-09-09T01:20:23.771Z,7.70
2017-09-09T01:22:56.093Z,7.70
2017-09-09T01:25:24.290Z,7.70
2017-09-09T01:34:38.861Z,7.60
2017-09-09T01:50:46.463Z,7.60
2017-09-09T01:53:15.593Z,7.50
2017-09-09T02:01:24.213Z,7.50
2017-09-09T02:03:52.886Z,7.40
2017-09-09T02:09:01.911Z,7.40
2017-09-09T02:11:48.871Z,7.40
2017-09-09T02:18:57.144Z,7.40
2017-09-09T02:48:07.603Z,7.20
2017-09-09T02:50:36.249Z,7.20
2017-09-09T02:53:07.064Z,7.20
2017-09-09T02:55:36.376Z,7.10
2017-09-09T02:58:06.644Z,7.10
2017-09-09T03:00:36.506Z,7.20
2017-09-09T03:03:06.645Z,7.20
2017-09-09T03:05:44.702Z,7.10
2017-09-09T03:14:31.729Z,6.90
2017-09-09T03:17:02.074Z,6.80
2017-09-09T03:22:24.838Z,6.80
2017-09-09T03:25:00.428Z,6.90
2017-09-09T03:27:33.518Z,6.80
2017-09-09T03:30:08.785Z,6.80
2017-09-09T03:32:39.163Z,6.90
2017-09-09T03:35:11.332Z,6.90
2017-09-09T03:37:40.183Z,6.90
2017-09-09T03:40:11.881Z,6.90
2017-09-09T03:42:40.810Z,6.90
2017-09-09T03:45:09.728Z,6.90
2017-09-09T03:47:38.297Z,6.90
2017-09-09T03:50:07.462Z,6.80
2017-09-09T03:52:39.870Z,6.80
2017-09-09T03:55:17.021Z,6.80
2017-09-09T03:57:46.018Z,6.80
2017-09-09T04:00:14.403Z,6.70
2017-09-09T04:02:43.602Z,6.70
2017-09-09T04:05:12.854Z,6.70
2017-09-09T04:07:41.906Z,6.60
2017-09-09T04:10:11.028Z,6.70
2017-09-09T04:12:50.981Z,6.70
2017-09-09T04:15:23.192Z,6.60
2017-09-09T04:17:52.232Z,6.60
2017-09-09T04:20:23.015Z,6.70
2017-09-09T04:22:52.765Z,6.70
2017-09-09T04:25:22.257Z,6.60
2017-09-09T04:27:51.195Z,6.60
2017-09-09T04:30:20.120Z,6.60
2017-09-09T04:32:49.024Z,6.60
2017-09-09T04:35:17.873Z,6.60
2017-09-09T04:37:47.238Z,6.60
2017-09-09T04:40:16.336Z,6.50
2017-09-09T04:42:45.329Z,6.60
2017-09-09T04:45:14.427Z,6.70
2017-09-09T04:47:44.455Z,6.80
2017-09-09T04:50:14.472Z,6.80
2017-09-09T04:52:43.404Z,6.90
2017-09-09T04:55:12.280Z,6.90
2017-09-09T04:57:41.162Z,7.00
2017-09-09T05:00:09.998Z,7.00
2017-09-09T05:02:38.809Z,7.00
2017-09-09T05:05:07.071Z,7.00
2017-09-09T05:07:35.934Z,7.10
2017-09-09T05:10:04.873Z,7.10
2017-09-09T05:12:33.731Z,7.10
2017-09-09T05:15:02.615Z,7.20
2017-09-09T05:17:31.923Z,7.30
2017-09-09T05:20:00.780Z,7.40
2017-09-09T05:22:30.402Z,7.50
2017-09-09T05:24:59.327Z,7.70
2017-09-09T05:27:28.222Z,7.80
2017-09-09T05:29:57.373Z,7.90
2017-09-09T05:32:26.434Z,8.00
2017-09-09T05:35:02.117Z,8.20
2017-09-09T05:37:30.869Z,8.30
2017-09-09T05:40:00.546Z,8.50
2017-09-09T05:42:29.442Z,8.60
2017-09-09T05:44:58.264Z,8.80
2017-09-09T05:47:27.015Z,9.00
2017-09-09T05:49:56.335Z,9.90
2017-09-09T05:52:24.200Z,9.80
2017-09-09T05:54:52.717Z,10.20
2017-09-09T05:57:21.315Z,10.40
2017-09-09T05:59:49.894Z,10.30
2017-09-09T06:02:18.462Z,10.40
2017-09-09T06:04:46.937Z,10.60
2017-09-09T06:07:15.545Z,10.70
2017-09-09T06:09:44.015Z,10.70
2017-09-09T06:12:12.519Z,10.90
2017-09-09T06:14:41.095Z,11.30
2017-09-09T06:17:09.563Z,11.60
2017-09-09T06:19:38.077Z,12.20
2017-09-09T06:22:06.562Z,12.60
2017-09-09T06:24:35.295Z,13.00
2017-09-09T06:27:03.822Z,13.60
2017-09-09T06:29:36.882Z,14.40
2017-09-09T06:32:05.385Z,14.60
2017-09-09T06:34:33.866Z,14.70
2017-09-09T06:37:02.444Z,14.70
2017-09-09T06:39:31.231Z,15.10
2017-09-09T06:42:00.606Z,15.30
2017-09-09T06:44:30.097Z,15.10
2017-09-09T06:47:04.225Z,15.10
2017-09-09T06:49:33.006Z,15.10
2017-09-09T06:52:01.615Z,15.20
2017-09-09T06:54:30.638Z,16.00
2017-09-09T06:56:59.410Z,16.40
2017-09-09T06:59:27.915Z,16.50
2017-09-09T07:01:56.494Z,17.10
2017-09-09T07:04:25.121Z,17.50
2017-09-09T07:06:53.655Z,17.90
2017-09-09T07:09:22.206Z,18.10
2017-09-09T07:11:50.779Z,18.80
2017-09-09T07:14:19.328Z,19.10
2017-09-09T07:16:47.833Z,19.70
2017-09-09T07:19:17.164Z,21.00
2017-09-09T07:21:45.615Z,21.00
2017-09-09T07:24:14.134Z,21.00
2017-09-09T07:26:42.608Z,21.50
2017-09-09T07:29:11.085Z,21.50
2017-09-09T07:31:39.608Z,22.80
2017-09-09T07:34:08.098Z,22.70
2017-09-09T07:36:36.888Z,22.80
2017-09-09T07:39:04.745Z,23.50
2017-09-09T07:41:33.293Z,23.40
2017-09-09T07:44:01.859Z,24.40
2017-09-09T07:46:30.381Z,25.60
2017-09-09T07:48:58.882Z,27.00
2017-09-09T07:51:27.347Z,26.60
2017-09-09T07:53:55.873Z,26.60
2017-09-09T07:56:24.344Z,26.50
2017-09-09T07:58:52.793Z,25.90
2017-09-09T08:01:21.258Z,25.80
2017-09-09T08:03:49.674Z,25.60
2017-09-09T08:06:18.211Z,26.90
2017-09-09T08:08:46.718Z,26.60
2017-09-09T08:11:15.171Z,26.40
2017-09-09T08:13:43.621Z,27.30
2017-09-09T08:16:12.037Z,27.80
2017-09-09T08:18:40.484Z,27.90
2017-09-09T08:21:09.738Z,28.00
2017-09-09T08:23:38.198Z,28.00
2017-09-09T08:26:06.712Z,28.10
2017-09-09T08:28:35.193Z,28.50
2017-09-09T08:31:03.646Z,29.20
2017-09-09T08:33:32.091Z,29.60
2017-09-09T08:36:01.595Z,30.10
2017-09-09T08:38:30.046Z,30.30
2017-09-09T08:40:58.512Z,30.20
2017-09-09T08:43:26.958Z,30.50
2017-09-09T08:45:54.877Z,29.80
2017-09-09T08:48:23.346Z,29.60
2017-09-09T08:50:51.818Z,30.00
2017-09-09T08:53:20.298Z,30.20
2017-09-09T08:55:48.742Z,31.20
2017-09-09T08:58:17.154Z,31.20
2017-09-09T09:00:45.593Z,31.60
2017-09-09T09:03:14.020Z,31.30
2017-09-09T09:05:42.517Z,31.80
2017-09-09T09:08:10.976Z,31.90
2017-09-09T09:10:39.401Z,31.60
2017-09-09T09:13:07.842Z,32.50
2017-09-09T09:15:36.149Z,31.00
2017-09-09T09:18:04.613Z,30.80
2017-09-09T09:20:33.065Z,30.90
2017-09-09T09:23:02.318Z,30.70
2017-09-09T09:25:30.771Z,30.70
2017-09-09T09:27:59.432Z,30.80
2017-09-09T09:30:27.893Z,30.90
2017-09-09T09:32:56.322Z,30.90
2017-09-09T09:35:24.773Z,31.00
2017-09-09T09:37:53.186Z,31.50
2017-09-09T09:40:21.610Z,31.40
2017-09-09T09:42:50.113Z,30.30
2017-09-09T09:45:18.558Z,30.30
2017-09-09T09:47:46.986Z,30.60
2017-09-09T09:50:15.422Z,31.40
2017-09-09T09:52:44.615Z,30.70
2017-09-09T09:55:13.037Z,30.70
2017-09-09T09:57:41.487Z,31.30
2017-09-09T10:00:09.906Z,31.50
2017-09-09T10:02:38.333Z,31.80
2017-09-09T10:05:06.813Z,31.60
2017-09-09T10:07:35.278Z,32.40
2017-09-09T10:10:03.703Z,32.40
2017-09-09T10:12:32.162Z,32.30
2017-09-09T10:15:00.599Z,32.10
2017-09-09T10:17:29.058Z,32.10
2017-09-09T10:19:57.511Z,31.40
2017-09-09T10:22:25.758Z,31.70
2017-09-09T10:24:58.843Z,32.40
2017-09-09T10:27:27.092Z,32.30
2017-09-09T10:29:55.423Z,32.10
2017-09-09T10:32:23.874Z,32.00
2017-09-09T10:34:52.347Z,32.30
2017-09-09T10:37:20.784Z,31.80
2017-09-09T10:39:49.266Z,32.70
2017-09-09T10:42:17.713Z,32.00
2017-09-09T10:44:47.928Z,32.00
2017-09-09T10:47:16.439Z,31.70
2017-09-09T10:49:44.890Z,31.40
2017-09-09T10:52:13.350Z,31.70
2017-09-09T10:54:41.803Z,32.40
2017-09-09T10:57:10.249Z,33.50
2017-09-09T10:59:38.666Z,33.30
2017-09-09T11:02:07.302Z,32.70
2017-09-09T11:04:35.744Z,33.00
2017-09-09T11:07:04.188Z,33.50
2017-09-09T11:09:32.644Z,32.50
2017-09-09T11:12:01.045Z,32.60
2017-09-09T11:14:29.452Z,31.40
2017-09-09T11:16:57.909Z,32.10
2017-09-09T11:19:26.349Z,31.70
2017-09-09T11:21:55.546Z,31.20
2017-09-09T11:24:24.773Z,32.30
2017-09-09T11:26:53.189Z,32.30
2017-09-09T11:29:21.619Z,32.90
2017-09-09T11:31:50.114Z,32.50
2017-09-09T11:34:19.309Z,33.50
2017-09-09T11:36:48.534Z,34.40
2017-09-09T11:39:16.978Z,34.30
2017-09-09T11:41:45.402Z,34.70
2017-09-09T11:44:13.826Z,33.50
2017-09-09T11:46:42.278Z,33.50
2017-09-09T11:49:10.709Z,33.10
2017-09-09T11:51:39.921Z,33.10
2017-09-09T11:54:08.368Z,33.10
2017-09-09T11:56:36.821Z,32.40
2017-09-09T11:59:05.254Z,32.30
2017-09-09T12:01:33.685Z,31.90
2017-09-09T12:04:02.113Z,32.50
2017-09-09T12:06:30.533Z,32.30
2017-09-09T12:08:58.979Z,32.50
2017-09-09T12:11:27.410Z,31.90
2017-09-09T12:13:55.833Z,31.90
2017-09-09T12:16:24.285Z,31.50
2017-09-09T12:18:52.698Z,31.60
2017-09-09T12:21:21.112Z,31.60
2017-09-09T12:23:49.565Z,31.60
2017-09-09T12:26:17.977Z,31.50
2017-09-09T12:28:46.425Z,31.70
2017-09-09T12:31:15.655Z,31.60
2017-09-09T12:33:44.083Z,31.50
2017-09-09T12:36:12.554Z,31.20
2017-09-09T12:38:41.096Z,31.40
2017-09-09T12:41:09.563Z,31.10
2017-09-09T12:43:38.090Z,31.90
2017-09-09T12:46:06.527Z,31.70
2017-09-09T12:48:34.946Z,31.40
2017-09-09T12:51:03.382Z,31.60
2017-09-09T12:53:32.573Z,31.90
2017-09-09T12:56:01.043Z,31.80
2017-09-09T12:58:30.255Z,31.00
2017-09-09T13:00:58.689Z,31.00
2017-09-09T13:03:27.115Z,30.90
2017-09-09T13:05:55.545Z,30.10
2017-09-09T13:08:23.985Z,29.50
2017-09-09T13:10:52.414Z,29.50
2017-09-09T13:13:20.861Z,29.90
2017-09-09T13:15:49.308Z,29.70
2017-09-09T13:18:18.508Z,30.80
2017-09-09T13:20:46.951Z,30.90
2017-09-09T13:23:15.421Z,31.10
2017-09-09T13:25:43.864Z,31.00
2017-09-09T13:28:12.291Z,31.00
2017-09-09T13:30:40.815Z,30.40
2017-09-09T13:33:09.246Z,29.90
2017-09-09T13:35:37.694Z,30.00
2017-09-09T13:38:06.126Z,29.40
2017-09-09T13:40:34.557Z,29.40
2017-09-09T13:43:02.971Z,28.80
2017-09-09T13:45:31.435Z,28.60
2017-09-09T13:47:59.872Z,28.20
2017-09-09T13:50:28.313Z,28.00
2017-09-09T13:52:56.770Z,27.00
2017-09-09T13:55:25.190Z,27.10
2017-09-09T13:57:53.633Z,26.60
2017-09-09T14:00:21.745Z,26.30
2017-09-09T14:02:50.038Z,25.60
2017-09-09T14:05:18.478Z,24.90
2017-09-09T14:07:46.934Z,24.30
2017-09-09T14:10:15.426Z,23.80
2017-09-09T14:12:43.894Z,23.70
2017-09-09T14:15:12.324Z,23.50
2017-09-09T14:17:40.766Z,23.40
2017-09-09T14:20:09.181Z,23.10
2017-09-09T14:22:37.655Z,22.90
2017-09-09T14:25:06.090Z,22.70
2017-09-09T14:27:34.334Z,22.60
2017-09-09T14:30:02.771Z,22.70
2017-09-09T14:32:31.245Z,22.80
2017-09-09T14:34:59.669Z,22.90
2017-09-09T14:37:28.094Z,23.50
2017-09-09T14:39:56.570Z,24.00
2017-09-09T14:42:24.991Z,24.30
2017-09-09T14:44:53.414Z,24.20
2017-09-09T14:47:21.927Z,23.90
2017-09-09T14:49:50.534Z,23.70
2017-09-09T14:52:18.998Z,23.30
2017-09-09T14:54:47.514Z,23.10
2017-09-09T14:57:15.973Z,23.20
2017-09-09T14:59:44.407Z,23.50
2017-09-09T15:02:12.860Z,23.70
2017-09-09T15:04:41.341Z,23.90
2017-09-09T15:07:09.777Z,24.00
2017-09-09T15:09:38.238Z,24.10
2017-09-09T15:12:06.685Z,23.90
2017-09-09T15:14:35.335Z,23.70
2017-09-09T15:17:04.586Z,23.50
2017-09-09T15:19:32.998Z,23.50
2017-09-09T15:22:01.407Z,23.20
2017-09-09T15:24:29.922Z,22.90
2017-09-09T15:26:58.344Z,22.60
2017-09-09T15:29:26.786Z,22.40
2017-09-09T15:31:55.241Z,22.30
2017-09-09T15:34:23.667Z,22.20
2017-09-09T15:36:52.111Z,22.00
2017-09-09T15:39:20.586Z,22.00
2017-09-09T15:41:48.846Z,21.70
2017-09-09T15:44:17.270Z,21.70
2017-09-09T15:46:45.557Z,21.90
2017-09-09T15:49:13.997Z,21.80
2017-09-09T15:51:42.482Z,22.00
2017-09-09T15:54:11.706Z,22.00
2017-09-09T15:56:40.141Z,22.00
2017-09-09T15:59:09.354Z,21.70
2017-09-09T16:01:37.813Z,21.70
2017-09-09T16:04:06.253Z,21.30
2017-09-09T16:06:34.682Z,21.10
2017-09-09T16:09:03.159Z,20.90
2017-09-09T16:11:31.426Z,20.70
2017-09-09T16:13:59.670Z,20.50
2017-09-09T16:16:28.282Z,20.30
2017-09-09T16:18:56.721Z,20.10
2017-09-09T16:21:25.161Z,19.90
2017-09-09T16:23:53.629Z,19.80
2017-09-09T16:26:22.058Z,19.70
2017-09-09T16:28:50.474Z,19.50
2017-09-09T16:31:18.945Z,19.30
2017-09-09T16:33:47.398Z,19.10
2017-09-09T16:36:15.873Z,19.00
2017-09-09T16:38:44.297Z,18.90
2017-09-09T16:41:12.590Z,18.60
2017-09-09T16:43:41.014Z,18.60
2017-09-09T16:46:09.438Z,18.40
2017-09-09T16:48:37.874Z,18.30
2017-09-09T16:51:07.075Z,18.00
2017-09-09T16:53:36.265Z,17.90
2017-09-09T16:56:04.702Z,17.90
2017-09-09T16:58:33.130Z,17.80
2017-09-09T17:01:01.543Z,17.70
2017-09-09T17:03:30.010Z,17.60
2017-09-09T17:05:58.414Z,17.50
2017-09-09T17:08:26.833Z,17.40
2017-09-09T17:10:55.264Z,17.20
2017-09-09T17:13:23.667Z,17.10
2017-09-09T17:15:52.069Z,16.90
2017-09-09T17:18:20.534Z,16.80
2017-09-09T17:20:48.958Z,16.70
2017-09-09T17:23:17.370Z,16.80
2017-09-09T17:25:45.824Z,16.60
2017-09-09T17:28:14.254Z,16.50
2017-09-09T17:30:42.658Z,16.50
2017-09-09T17:33:11.093Z,16.50
2017-09-09T17:35:39.508Z,16.50
2017-09-09T17:38:07.933Z,16.40
2017-09-09T17:40:36.386Z,16.30
2017-09-09T17:43:04.820Z,16.20
2017-09-09T17:45:32.888Z,16.20
2017-09-09T17:48:01.346Z,16.20
2017-09-09T17:50:29.762Z,16.10
2017-09-09T17:52:58.218Z,16.10
2017-09-09T17:55:26.682Z,16.00
2017-09-09T17:57:55.112Z,16.00
2017-09-09T18:00:23.583Z,16.00
2017-09-09T18:02:52.088Z,16.00
2017-09-09T18:05:20.540Z,15.80
2017-09-09T18:07:48.994Z,15.70
2017-09-09T18:10:17.514Z,15.50
2017-09-09T18:12:45.958Z,15.40
2017-09-09T18:15:14.379Z,15.30
2017-09-09T18:17:42.670Z,15.30
2017-09-09T18:20:11.128Z,15.30
2017-09-09T18:22:39.573Z,15.10
2017-09-09T18:25:08.058Z,15.00
2017-09-09T18:27:36.542Z,14.90
2017-09-09T18:30:05.008Z,14.70
2017-09-09T18:32:33.490Z,14.60
2017-09-09T18:35:02.711Z,14.40
2017-09-09T18:37:31.169Z,14.40
2017-09-09T18:39:59.630Z,14.40
2017-09-09T18:42:28.095Z,14.40
2017-09-09T18:44:56.585Z,14.40
2017-09-09T18:47:25.020Z,14.30
2017-09-09T18:49:53.452Z,14.30
2017-09-09T18:52:21.926Z,14.40
2017-09-09T18:54:50.395Z,14.40
2017-09-09T18:57:18.871Z,14.40
2017-09-09T18:59:47.159Z,14.20
2017-09-09T19:02:15.610Z,14.20
2017-09-09T19:04:44.082Z,14.30
2017-09-09T19:07:12.565Z,14.20
2017-09-09T19:09:41.003Z,14.10
2017-09-09T19:12:09.478Z,14.00
2017-09-09T19:14:37.964Z,13.80
2017-09-09T19:17:06.405Z,13.80
2017-09-09T19:19:35.085Z,13.70
2017-09-09T19:22:03.545Z,13.60
2017-09-09T19:24:31.998Z,13.50
2017-09-09T19:27:00.541Z,13.30
2017-09-09T19:29:28.802Z,13.30
2017-09-09T19:31:57.230Z,13.30
2017-09-09T19:34:25.716Z,13.30
2017-09-09T19:36:54.182Z,13.20
2017-09-09T19:39:22.667Z,13.20
2017-09-09T19:41:51.124Z,13.20
2017-09-09T19:44:19.561Z,13.10
2017-09-09T19:46:48.043Z,13.00
2017-09-09T19:49:16.473Z,12.90
2017-09-09T19:51:44.931Z,12.80
2017-09-09T19:54:13.433Z,12.70
2017-09-09T19:56:41.878Z,12.70
2017-09-09T19:59:10.334Z,12.60
2017-09-09T20:01:38.831Z,12.70
2017-09-09T20:04:07.281Z,12.70
2017-09-09T20:06:35.553Z,12.60
2017-09-09T20:09:03.131Z,12.60
2017-09-09T20:11:31.583Z,12.50
2017-09-09T20:14:00.042Z,12.60
2017-09-09T20:16:28.527Z,12.60
2017-09-09T20:18:57.054Z,12.50
2017-09-09T20:21:25.506Z,12.50
2017-09-09T20:23:53.780Z,12.60
2017-09-09T20:26:22.098Z,12.50
2017-09-09T20:28:50.554Z,12.40
2017-09-09T20:31:19.022Z,12.50
2017-09-09T20:33:47.509Z,12.50
2017-09-09T20:36:15.988Z,12.60
2017-09-09T20:38:44.441Z,12.50
2017-09-09T20:41:12.970Z,12.50
2017-09-09T20:43:41.435Z,12.40
2017-09-09T20:46:09.920Z,12.30
2017-09-09T20:48:38.410Z,12.40
2017-09-09T20:51:06.870Z,12.30
2017-09-09T20:53:35.145Z,12.20
2017-09-09T20:56:03.691Z,12.10
2017-09-09T20:58:32.153Z,12.00
2017-09-09T21:01:00.611Z,12.00
2017-09-09T21:03:29.147Z,12.10
2017-09-09T21:05:57.880Z,12.10
2017-09-09T21:08:26.352Z,12.20
2017-09-09T21:10:54.807Z,12.20
2017-09-09T21:13:23.352Z,12.20
2017-09-09T21:15:51.624Z,12.30
2017-09-09T21:18:20.130Z,12.30
2017-09-09T21:20:48.612Z,12.30
2017-09-09T21:23:17.072Z,12.20
2017-09-09T21:25:45.516Z,12.20
2017-09-09T21:28:14.008Z,12.20
2017-09-09T21:30:42.515Z,12.10
2017-09-09T21:33:10.963Z,12.20
2017-09-09T21:35:39.225Z,12.10
2017-09-09T21:38:07.551Z,12.00
2017-09-09T21:40:36.020Z,12.00
2017-09-09T21:43:04.525Z,12.00
2017-09-09T21:45:33.035Z,11.90
2017-09-09T21:48:01.499Z,12.10
2017-09-09T21:50:29.996Z,12.20
2017-09-09T21:52:58.170Z,12.10
2017-09-09T21:55:26.661Z,12.20
2017-09-09T21:57:55.951Z,12.30
2017-09-09T22:00:24.487Z,12.20
2017-09-09T22:02:52.958Z,12.30
2017-09-09T22:05:22.198Z,12.20
2017-09-09T22:07:50.767Z,12.20
2017-09-09T22:10:19.224Z,12.30
2017-09-09T22:12:47.695Z,12.30
2017-09-09T22:15:16.224Z,12.20
2017-09-09T22:17:44.681Z,12.10
2017-09-09T22:20:13.139Z,12.10
2017-09-09T22:22:42.374Z,12.20
2017-09-09T22:25:10.871Z,12.20
2017-09-09T22:27:39.362Z,12.20
2017-09-09T22:30:07.887Z,12.10
2017-09-09T22:32:36.346Z,12.00
2017-09-09T22:35:04.830Z,12.00
2017-09-09T22:37:33.295Z,11.90
2017-09-09T22:40:01.752Z,11.90
2017-09-09T22:42:30.209Z,12.00
2017-09-09T22:44:58.733Z,12.10
2017-09-09T22:47:27.189Z,12.30
2017-09-09T22:49:55.681Z,12.40
2017-09-09T22:52:24.141Z,12.50
2017-09-09T22:54:52.596Z,12.60
2017-09-09T22:57:21.134Z,12.70
2017-09-09T22:59:49.609Z,12.70
2017-09-09T23:02:18.096Z,12.60
2017-09-09T23:04:46.594Z,12.50
2017-09-09T23:07:15.043Z,12.50
2017-09-09T23:09:43.490Z,12.50
2017-09-09T23:12:12.747Z,12.50
2017-09-09T23:14:41.210Z,12.40
2017-09-09T23:17:09.646Z,12.30
2017-09-09T23:19:38.136Z,12.30
2017-09-09T23:22:06.642Z,12.30
2017-09-09T23:24:35.122Z,12.40
2017-09-09T23:27:03.622Z,12.40
2017-09-09T23:29:32.086Z,12.50
2017-09-09T23:32:00.528Z,12.50
2017-09-09T23:34:28.994Z,12.60
2017-09-09T23:36:57.306Z,12.60
2017-09-09T23:39:27.335Z,12.50
2017-09-09T23:41:55.891Z,12.50
2017-09-09T23:44:24.366Z,12.50
2017-09-09T23:46:52.830Z,12.40
2017-09-09T23:49:21.304Z,12.20
2017-09-09T23:51:49.843Z,12.20
2017-09-09T23:54:18.290Z,12.10
2017-09-09T23:56:46.771Z,12.00
2017-09-09T23:59:15.231Z,12.00
